CES4 weather

Public forecast

Using degrees Celsius for public forecast. Weather courtesy of forecast.io.

Closest aviation weather report (METAR) to Westlock Airport

Closest report is Edmonton / Villeneuve Airport, 28.8 nm (53.3 km) S. Retrieved 2020/08/12 17:00 UTC (28 minutes ago):

CZVL 121700Z AUTO 29012G20KT 9SM CLR 13/06 A2973 RMK SLP077 DENSITY ALT 2700FT

Closest aviation forecast (TAF) to Westlock Airport

Closest forecast is Edmonton / Villeneuve Airport, 28.8 nm (53.3 km) S. Retrieved 2020/08/12 12:00 UTC (5 hours ago):

TAF CZVL 121138Z 1212/1224 30010KT P6SM -RA FEW008 BKN030 OVC050 TEMPO 1212/1215 5SM -SHRA BR BKN008 OVC020 FM121500 30010KT P6SM BKN060 TEMPO 1215/1217 SCT015 BKN040 FM121700 28010KT P6SM SCT060 RMK FCST BASED ON AUTO OBS NXT FCST BY 121800Z